Terminal Aerodrome Forecast
Issued by NWS

Home | Current Version | Previous Version | Text Only | Print | Product List | Glossary On
Versions: 1 2 3 4 5 6 7 8 9 10 11 12 13 14 15 16 17 18 19 20
000
FTUS46 KEKA 211132
TAFCEC
TAF
KCEC 211132Z 2112/2212 21010KT 3SM -RA OVC005
     FM211500 22010KT 5SM -RA BR BKN010 OVC025
     FM220300 22006KT 5SM BR OVC025=

USA.gov is the U.S. government's official web portal to all federal, state and local government web resources and services.